Time;durP1;ratioP1;P1;durP2;ratioP2;P2;SDS_P1;SDS_P2;PMS_P1;PMS_P2;Temp;Humidity;BMP_temperature;BMP_pressure;BME280_temperature;BME280_humidity;BME280_pressure;Samples;Min_cycle;Max_cycle;Signal;HPM_P1;HPM_P2
2022/09/04 00:01:52;;;;;;;4.00;2.72;;;;;;;20.36;57.80;101369.16;5037280;27;96717;-31
2022/09/04 00:04:23;;;;;;;4.63;2.75;;;;;;;20.33;57.84;101361.22;5036528;27;100875;-32
2022/09/04 00:07:26;;;;;;;4.63;2.78;;;;;;;20.31;58.88;101376.13;5055181;27;97405;-30
2022/09/04 00:10:10;;;;;;;6.85;3.03;;;;;;;20.30;59.47;101377.97;5036913;27;96798;-31
2022/09/04 00:12:44;;;;;;;6.05;3.42;;;;;;;20.32;58.65;101381.47;5036264;27;96894;-31
2022/09/04 00:15:20;;;;;;;7.53;3.33;;;;;;;20.32;58.35;101383.34;5054819;27;99368;-32
2022/09/04 00:17:55;;;;;;;6.45;3.10;;;;;;;20.31;58.46;101385.25;5053945;27;96856;-30
2022/09/04 00:20:46;;;;;;;7.10;3.38;;;;;;;20.32;59.29;101388.84;5055492;27;96611;-30
2022/09/04 00:23:47;;;;;;;4.47;2.70;;;;;;;20.29;59.24;101389.16;5037450;27;96827;-31
2022/09/04 00:26:44;;;;;;;6.68;2.85;;;;;;;20.27;59.40;101394.78;5054670;27;97478;-30
2022/09/04 00:30:00;;;;;;;3.83;2.45;;;;;;;20.23;60.41;101389.72;5054630;27;99840;-30
2022/09/04 00:32:44;;;;;;;5.47;3.20;;;;;;;20.18;60.52;101398.41;5011341;27;96772;-31
2022/09/04 00:35:17;;;;;;;4.40;2.92;;;;;;;20.13;59.19;101401.59;5036516;27;96654;-30
2022/09/04 00:37:55;;;;;;;4.63;3.20;;;;;;;20.10;59.53;101398.25;5036325;27;101720;-31
2022/09/04 00:40:43;;;;;;;4.80;3.10;;;;;;;20.08;61.53;101403.03;5036474;27;101411;-30
2022/09/04 00:43:38;;;;;;;6.13;3.80;;;;;;;20.07;61.85;101406.78;5036682;27;96724;-30
2022/09/04 00:46:27;;;;;;;7.55;3.50;;;;;;;20.03;61.63;101414.47;5054856;27;96532;-30
2022/09/04 00:49:02;;;;;;;5.30;3.40;;;;;;;20.01;61.82;101413.72;5054886;27;98543;-31
2022/09/04 00:51:36;;;;;;;6.68;4.03;;;;;;;19.96;60.30;101421.53;5054783;27;100697;-30
2022/09/04 00:54:20;;;;;;;4.97;3.10;;;;;;;19.92;61.53;101418.19;5054863;27;96635;-31
2022/09/04 00:57:01;;;;;;;5.53;3.63;;;;;;;19.90;60.60;101423.00;5036551;27;96701;-31
2022/09/04 00:59:44;;;;;;;4.65;3.05;;;;;;;19.87;61.02;101420.50;5053828;27;99434;-31
2022/09/04 01:02:30;;;;;;;5.30;3.42;;;;;;;19.82;61.92;101420.06;5054462;27;97317;-30
2022/09/04 01:05:19;;;;;;;6.22;3.75;;;;;;;19.81;61.41;101426.56;5055032;27;96443;-30
2022/09/04 01:08:08;;;;;;;5.15;3.50;;;;;;;19.78;61.26;101429.59;5036566;27;96697;-31
2022/09/04 01:10:39;;;;;;;6.03;3.20;;;;;;;19.75;61.20;101429.00;5035954;27;101100;-30
2022/09/04 01:13:17;;;;;;;6.22;3.83;;;;;;;19.73;60.93;101431.88;5035190;27;100785;-30
2022/09/04 01:15:48;;;;;;;6.90;3.70;;;;;;;19.73;62.09;101431.88;5036084;27;96690;-30
2022/09/04 01:18:29;;;;;;;5.10;3.50;;;;;;;19.72;60.85;101430.16;5055123;27;96557;-31
2022/09/04 01:21:05;;;;;;;5.40;3.55;;;;;;;19.70;61.44;101443.16;5035714;27;101303;-31
2022/09/04 01:23:41;;;;;;;6.85;3.33;;;;;;;19.66;61.43;101441.66;5035839;27;100655;-31
2022/09/04 01:26:20;;;;;;;5.03;3.45;;;;;;;19.65;61.07;101443.56;5053948;27;96562;-32
2022/09/04 01:29:06;;;;;;;6.05;3.60;;;;;;;19.63;62.55;101447.44;5038600;27;96856;-30
2022/09/04 01:31:40;;;;;;;6.85;3.53;;;;;;;19.60;61.44;101453.25;5039139;27;101421;-30
2022/09/04 01:34:38;;;;;;;5.22;3.67;;;;;;;19.55;62.80;101439.03;5057968;27;97267;-30
2022/09/04 01:37:26;;;;;;;8.13;3.60;;;;;;;19.58;63.45;101439.63;5039515;27;96738;-32
2022/09/04 01:40:14;;;;;;;5.68;3.30;;;;;;;19.55;63.45;101445.41;5057519;27;96871;-31
2022/09/04 01:42:45;;;;;;;6.45;3.40;;;;;;;19.51;61.65;101447.53;5038538;27;101063;-30
2022/09/04 01:45:11;;;;;;;7.65;3.50;;;;;;;19.48;61.60;101444.22;5057913;27;97734;-31
2022/09/04 01:47:50;;;;;;;6.25;3.58;;;;;;;19.49;62.79;101445.94;5057572;27;96516;-31
2022/09/04 01:50:22;;;;;;;6.85;3.65;;;;;;;19.47;62.85;101448.84;5057543;27;96656;-30
2022/09/04 01:53:10;;;;;;;;;;;;;;;19.46;64.63;101449.84;5057145;27;100793;-30
2022/09/04 01:55:49;;;;;;;6.43;3.17;;;;;;;19.39;62.90;101432.16;5045708;27;98022;-31
2022/09/04 01:58:42;;;;;;;6.18;3.20;;;;;;;19.37;63.83;101441.56;5039141;27;96747;-31
2022/09/04 02:01:27;;;;;;;5.05;3.15;;;;;;;19.37;64.10;101450.66;5039194;27;96723;-32
2022/09/04 02:04:27;;;;;;;6.28;3.13;;;;;;;19.38;63.93;101454.28;5038746;27;101181;-30
2022/09/04 02:07:17;;;;;;;6.57;3.80;;;;;;;19.38;63.10;101454.28;5038490;27;100904;-31
2022/09/04 02:10:09;;;;;;;4.78;3.00;;;;;;;19.34;63.73;101455.56;5057518;27;96664;-31
2022/09/04 02:12:52;;;;;;;;;;;;;;;19.36;64.24;101459.06;5057341;27;96916;-31
2022/09/04 02:15:33;;;;;;;4.15;2.90;;;;;;;19.34;64.02;101461.06;5056676;27;98454;-34
2022/09/04 02:18:18;;;;;;;6.35;3.40;;;;;;;19.33;63.28;101462.94;5056746;27;97446;-31
2022/09/04 02:21:01;;;;;;;6.28;3.40;;;;;;;19.29;62.48;101464.22;5038469;27;96587;-30
2022/09/04 02:23:39;;;;;;;6.30;3.28;;;;;;;19.29;63.28;101469.72;5038975;27;96721;-31
2022/09/04 02:26:29;;;;;;;5.45;3.45;;;;;;;19.25;64.42;101465.50;5056987;27;97909;-30
2022/09/04 02:29:30;;;;;;;5.72;3.25;;;;;;;19.25;64.80;101470.97;5038521;27;100911;-30
2022/09/04 02:32:07;;;;;;;6.03;3.80;;;;;;;19.22;64.54;101479.50;5003274;27;96955;-30
2022/09/04 02:34:41;;;;;;;5.32;3.30;;;;;;;19.15;64.46;101465.44;5057119;27;96498;-30
2022/09/04 02:37:22;;;;;;;5.32;3.38;;;;;;;19.16;64.78;101471.78;5056840;27;97934;-31
2022/09/04 02:40:10;;;;;;;5.85;3.20;;;;;;;19.13;64.59;101478.44;5037938;27;100797;-31
2022/09/04 02:43:04;;;;;;;5.35;3.30;;;;;;;19.14;64.60;101476.53;5006061;27;96839;-30
2022/09/04 02:45:44;;;;;;;4.75;3.03;;;;;;;19.12;63.97;101476.69;5038378;27;96785;-30
2022/09/04 02:48:44;;;;;;;5.72;3.60;;;;;;;19.12;64.74;101482.19;5037673;27;100953;-31
2022/09/04 02:51:18;;;;;;;5.95;3.05;;;;;;;19.13;64.04;101494.03;5056167;27;99293;-31
2022/09/04 02:54:01;;;;;;;6.97;3.88;;;;;;;19.09;64.20;101487.94;5056750;27;96550;-31
2022/09/04 02:56:47;;;;;;;7.30;3.35;;;;;;;19.10;63.96;101486.94;5038338;27;96671;-31
2022/09/04 03:00:03;;;;;;;4.93;3.30;;;;;;;19.04;64.08;101485.63;5056391;27;98153;-30
2022/09/04 03:02:32;;;;;;;5.43;3.25;;;;;;;19.04;63.38;101484.72;4953606;28;99439;-31
2022/09/04 03:05:17;;;;;;;5.13;3.33;;;;;;;19.06;64.16;101497.31;4954428;28;96705;-30
2022/09/04 03:08:11;;;;;;;7.00;3.35;;;;;;;19.03;65.75;101489.34;5008982;27;96763;-31
2022/09/04 03:10:43;;;;;;;6.97;3.15;;;;;;;18.98;64.14;101496.25;5046443;27;98078;-31
2022/09/04 03:13:57;;;;;;;5.78;3.53;;;;;;;18.97;65.18;101492.63;5036999;27;101050;-30
2022/09/04 03:16:52;;;;;;;6.93;3.45;;;;;;;18.94;65.43;101501.13;5046461;27;96826;-30
2022/09/04 03:19:50;;;;;;;5.68;3.25;;;;;;;18.94;65.37;101500.25;5056452;27;96458;-30
2022/09/04 03:22:32;;;;;;;6.57;3.75;;;;;;;18.90;65.26;101494.16;5037423;27;101301;-31
2022/09/04 03:25:01;;;;;;;6.60;3.67;;;;;;;18.90;65.17;101499.63;5037530;27;100770;-30
2022/09/04 03:27:26;;;;;;;6.68;3.55;;;;;;;18.91;64.84;101503.28;5056011;27;96804;-30
2022/09/04 03:30:02;;;;;;;6.18;4.00;;;;;;;18.89;66.43;101503.41;5056269;27;96783;-31
2022/09/04 03:32:34;;;;;;;6.95;3.55;;;;;;;18.87;65.52;101510.91;5037302;27;100100;-31
2022/09/04 03:35:29;;;;;;;9.48;3.35;;;;;;;18.89;65.93;101512.50;5055821;27;99777;-30
2022/09/04 03:38:16;;;;;;;7.43;3.83;;;;;;;18.89;64.94;101518.00;5056042;27;96656;-30
2022/09/04 03:40:59;;;;;;;5.85;3.72;;;;;;;18.90;65.18;101518.84;5055791;27;96753;-30
2022/09/04 03:43:54;;;;;;;6.78;3.72;;;;;;;18.91;65.80;101523.38;5055303;27;97952;-31
2022/09/04 03:46:28;;;;;;;6.55;3.97;;;;;;;18.88;64.91;101518.16;5055657;27;97358;-32
2022/09/04 03:49:04;;;;;;;7.32;4.40;;;;;;;18.89;66.11;101522.63;5055913;27;96751;-30
2022/09/04 03:51:41;;;;;;;7.10;4.05;;;;;;;18.91;65.67;101520.63;5036426;27;96855;-30
2022/09/04 03:54:17;;;;;;;7.10;4.03;;;;;;;18.91;65.70;101528.00;5055432;27;97514;-32
2022/09/04 03:56:59;;;;;;;6.90;3.95;;;;;;;18.95;65.02;101532.19;5036991;27;101026;-31
2022/09/04 03:59:49;;;;;;;6.72;4.30;;;;;;;18.93;65.97;101529.59;5037201;27;96763;-31
2022/09/04 04:02:17;;;;;;;8.00;4.15;;;;;;;18.94;65.29;101542.31;5055848;27;96847;-30
2022/09/04 04:05:13;;;;;;;7.18;4.05;;;;;;;18.95;66.43;101530.34;5055088;27;99305;-30
2022/09/04 04:08:08;;;;;;;7.63;4.28;;;;;;;18.93;67.16;101537.84;5055047;27;98031;-30
2022/09/04 04:10:55;;;;;;;6.53;3.83;;;;;;;18.90;65.10;101535.34;5036613;27;96653;-30
2022/09/04 04:13:47;;;;;;;8.13;4.22;;;;;;;18.90;66.51;101538.06;5036458;27;96915;-31
2022/09/04 04:16:52;;;;;;;7.30;4.00;;;;;;;18.89;66.36;101533.59;5042638;27;97594;-30
2022/09/04 04:19:32;;;;;;;6.63;4.43;;;;;;;18.84;66.23;101531.25;5055160;27;97857;-31
2022/09/04 04:22:16;;;;;;;8.45;3.75;;;;;;;18.86;66.21;101536.63;5037004;27;96795;-31
2022/09/04 04:25:00;;;;;;;9.18;4.97;;;;;;;18.85;65.83;101545.84;5055462;27;96850;-30
2022/09/04 04:27:32;;;;;;;8.75;4.45;;;;;;;18.82;65.34;101546.09;5055184;27;97697;-30
2022/09/04 04:30:13;;;;;;;10.57;4.75;;;;;;;18.81;65.93;101545.25;5036970;27;101023;-31
2022/09/04 04:33:12;;;;;;;6.35;3.90;;;;;;;18.78;67.55;101555.59;5036792;27;97120;-32
2022/09/04 04:35:51;;;;;;;9.20;4.15;;;;;;;18.77;66.61;101549.25;5055401;27;96769;-30
2022/09/04 04:38:19;;;;;;;8.95;5.03;;;;;;;18.76;66.71;101547.53;5035892;27;101218;-30
2022/09/04 04:40:50;;;;;;;9.68;4.75;;;;;;;18.75;66.09;101547.59;5054763;27;97247;-30
2022/09/04 04:43:40;;;;;;;9.77;5.47;;;;;;;18.74;66.62;101554.09;5055031;27;96810;-30
2022/09/04 04:46:21;;;;;;;8.57;4.70;;;;;;;18.73;66.98;101555.09;5055317;27;96585;-31
2022/09/04 04:49:10;;;;;;;7.43;4.50;;;;;;;18.70;67.29;101558.09;5036392;27;101405;-30
2022/09/04 04:52:07;;;;;;;7.78;4.68;;;;;;;18.64;67.63;101560.38;5036211;27;100567;-32
2022/09/04 04:55:09;;;;;;;9.10;4.15;;;;;;;18.64;68.43;101554.88;5036593;27;96677;-30
2022/09/04 04:58:22;;;;;;;10.05;5.40;;;;;;;18.61;67.41;101555.13;5054736;27;96694;-31
2022/09/04 05:01:03;;;;;;;8.63;4.72;;;;;;;18.56;67.25;101560.13;5008663;27;97447;-31
2022/09/04 05:03:43;;;;;;;;;;;;;;;18.57;68.52;101569.25;5038672;27;100969;-30
2022/09/04 05:06:20;;;;;;;7.28;4.00;;;;;;;18.57;66.96;101563.78;5057988;27;96724;-31
2022/09/04 05:09:00;;;;;;;8.80;4.85;;;;;;;18.56;66.94;101583.97;5058326;27;96635;-30
2022/09/04 05:11:35;;;;;;;9.73;4.50;;;;;;;18.57;68.03;101593.94;5039534;27;101210;-30
2022/09/04 05:14:19;;;;;;;7.57;4.70;;;;;;;18.56;68.49;101586.69;5039449;27;101503;-30
2022/09/04 05:17:03;;;;;;;9.18;5.15;;;;;;;18.52;68.74;101597.09;5039529;27;96586;-31
2022/09/04 05:19:32;;;;;;;10.32;4.88;;;;;;;18.54;67.26;101597.78;5058317;27;96612;-30
2022/09/04 05:22:16;;;;;;;8.35;4.68;;;;;;;18.61;67.67;101607.25;5039384;27;101406;-30
2022/09/04 05:24:44;;;;;;;11.13;5.00;;;;;;;18.61;69.77;101601.78;5039710;27;100776;-31
2022/09/04 05:27:19;;;;;;;9.02;5.80;;;;;;;18.62;68.62;101603.53;5058055;27;96571;-30
2022/09/04 05:29:58;;;;;;;9.75;5.47;;;;;;;18.64;67.80;101604.28;5058145;27;96836;-30
2022/09/04 05:32:37;;;;;;;8.43;4.95;;;;;;;18.68;67.16;101613.13;5038864;27;100927;-30
2022/09/04 05:35:14;;;;;;;10.00;5.22;;;;;;;18.68;67.20;101613.13;5039444;27;100858;-31
2022/09/04 05:37:50;;;;;;;7.72;4.40;;;;;;;18.67;68.27;101616.88;5039610;27;96658;-30
2022/09/04 05:40:26;;;;;;;9.00;5.05;;;;;;;18.73;67.98;101627.31;5039511;27;96701;-30
2022/09/04 05:43:04;;;;;;;8.35;5.32;;;;;;;18.73;68.22;101619.09;5039069;27;101211;-31
2022/09/04 05:45:48;;;;;;;9.57;4.63;;;;;;;18.75;67.50;101625.31;5038785;27;101272;-30
2022/09/04 05:48:46;;;;;;;9.05;4.85;;;;;;;18.80;67.99;101627.72;5057826;27;96669;-31
2022/09/04 05:51:18;;;;;;;9.48;4.80;;;;;;;18.80;67.65;101631.31;5057815;27;96876;-31
2022/09/04 05:54:15;;;;;;;9.85;5.18;;;;;;;18.81;67.95;101629.47;5057455;27;98166;-31
2022/09/04 05:57:03;;;;;;;8.48;5.03;;;;;;;18.83;68.28;101642.06;5039060;27;101176;-30
2022/09/04 05:59:34;;;;;;;10.35;4.95;;;;;;;18.86;66.77;101643.69;5057523;27;96615;-31
2022/09/04 06:02:15;;;;;;;8.93;4.65;;;;;;;18.87;68.26;101645.41;5039126;27;96663;-31
2022/09/04 06:05:20;;;;;;;9.67;4.77;;;;;;;18.92;67.67;101653.28;5038830;27;101302;-31
2022/09/04 06:08:19;;;;;;;8.25;4.63;;;;;;;18.94;68.16;101646.66;5057141;27;97998;-30
2022/09/04 06:11:06;;;;;;;9.43;4.85;;;;;;;18.94;67.28;101652.13;5057668;27;96515;-30
2022/09/04 06:13:31;;;;;;;8.98;5.15;;;;;;;18.98;67.93;101661.88;5056625;27;96881;-31
2022/09/04 06:16:05;;;;;;;8.23;5.40;;;;;;;19.01;67.20;101658.84;5055516;27;99118;-30
2022/09/04 06:18:46;;;;;;;10.43;5.88;;;;;;;19.02;68.00;101668.84;5057033;27;97325;-30
2022/09/04 06:21:34;;;;;;;10.88;5.43;;;;;;;19.00;70.33;101659.88;5057272;27;96567;-31
2022/09/04 06:24:06;;;;;;;9.15;5.80;;;;;;;19.01;69.49;101664.34;5038901;27;96692;-30
2022/09/04 06:26:52;;;;;;;11.93;5.30;;;;;;;19.06;69.83;101659.34;5038124;27;101115;-31
2022/09/04 06:29:26;;;;;;;11.38;5.82;;;;;;;19.11;68.05;101661.69;5038379;27;101200;-30
2022/09/04 06:32:07;;;;;;;10.45;5.63;;;;;;;19.16;70.64;101666.78;5056856;27;96709;-30
2022/09/04 06:34:41;;;;;;;10.00;5.90;;;;;;;19.24;68.53;101669.78;5057193;27;96836;-30
2022/09/04 06:37:35;;;;;;;10.57;5.82;;;;;;;19.35;69.51;101669.72;5056704;27;97950;-32
2022/09/04 06:40:15;;;;;;;9.48;5.45;;;;;;;19.36;70.71;101665.97;5038108;27;100962;-30
2022/09/04 06:43:18;;;;;;;12.57;6.55;;;;;;;19.50;69.51;101673.03;5056987;27;96464;-32
2022/09/04 06:46:01;;;;;;;11.05;6.30;;;;;;;19.63;68.94;101681.94;5057184;27;97183;-30
2022/09/04 06:49:03;;;;;;;10.35;5.95;;;;;;;19.75;70.02;101680.03;5056450;27;99362;-30
2022/09/04 06:51:51;;;;;;;9.80;6.63;;;;;;;19.90;68.04;101684.22;5038147;27;101488;-30
2022/09/04 06:54:44;;;;;;;12.32;6.55;;;;;;;20.01;69.45;101685.16;5055869;27;96526;-30
2022/09/04 06:57:37;;;;;;;12.82;6.72;;;;;;;20.24;67.51;101677.59;5038282;27;96791;-30
2022/09/04 07:00:16;;;;;;;13.10;6.70;;;;;;;20.43;66.68;101687.84;5038058;27;101287;-30
2022/09/04 07:03:03;;;;;;;15.98;6.82;;;;;;;20.60;65.96;101678.94;5037840;27;100910;-30
2022/09/04 07:05:48;;;;;;;14.77;6.65;;;;;;;20.78;66.32;101695.66;5056366;27;96651;-30
2022/09/04 07:08:22;;;;;;;13.40;7.88;;;;;;;20.89;66.07;101684.53;5038055;27;96849;-30
2022/09/04 07:11:02;;;;;;;17.27;7.60;;;;;;;21.01;65.78;101685.28;5055952;27;97567;-30
2022/09/04 07:13:30;;;;;;;15.40;7.82;;;;;;;21.14;65.24;101687.75;5037389;27;100892;-31
2022/09/04 07:16:08;;;;;;;17.25;8.55;;;;;;;21.37;65.44;101691.13;5056010;27;96635;-30
2022/09/04 07:18:55;;;;;;;14.32;7.82;;;;;;;21.46;65.37;101698.56;5056128;27;96681;-30
2022/09/04 07:21:47;;;;;;;13.48;7.75;;;;;;;21.52;64.97;101692.44;5055169;27;99386;-30
2022/09/04 07:24:58;;;;;;;17.25;7.75;;;;;;;21.70;64.70;101700.88;5037461;27;101015;-32
2022/09/04 07:27:36;;;;;;;14.30;8.10;;;;;;;21.82;64.05;101698.84;4959898;27;96681;-31
2022/09/04 07:30:12;;;;;;;15.43;7.80;;;;;;;21.94;63.38;101703.16;5037978;27;96886;-30
2022/09/04 07:32:49;;;;;;;16.55;8.43;;;;;;;22.02;63.58;101706.06;5037254;27;100886;-31
2022/09/04 07:35:24;;;;;;;19.60;8.02;;;;;;;22.13;62.77;101702.25;5055970;27;97874;-31
2022/09/04 07:38:08;;;;;;;14.43;8.85;;;;;;;22.33;62.54;101714.13;5037707;27;96685;-30
2022/09/04 07:40:41;;;;;;;18.67;8.65;;;;;;;22.49;62.25;101713.50;5056262;27;96708;-30
2022/09/04 07:43:32;;;;;;;14.40;8.05;;;;;;;22.71;62.22;101714.13;5037210;27;100750;-31
2022/09/04 07:46:12;;;;;;;14.20;8.25;;;;;;;22.64;62.54;101716.63;5037197;27;100842;-30
2022/09/04 07:48:44;;;;;;;14.15;8.05;;;;;;;22.69;62.53;101719.81;5036810;27;96842;-31
2022/09/04 07:51:15;;;;;;;20.80;9.25;;;;;;;22.77;61.47;101717.16;5055595;27;96794;-30
2022/09/04 07:54:03;;;;;;;15.88;9.10;;;;;;;22.89;61.71;101720.59;5055271;27;98584;-30
2022/09/04 07:57:02;;;;;;;16.92;8.63;;;;;;;22.90;61.90;101728.72;5037006;27;101455;-31
2022/09/04 08:00:07;;;;;;;18.38;9.27;;;;;;;23.03;61.43;101736.69;5037411;27;96636;-31
2022/09/04 08:02:55;;;;;;;18.67;8.15;;;;;;;23.26;60.98;101734.38;5037354;27;96894;-30
2022/09/04 08:05:30;;;;;;;17.95;10.40;;;;;;;23.27;61.42;101726.94;5055827;27;97047;-30
2022/09/04 08:08:24;;;;;;;20.85;10.80;;;;;;;23.37;61.38;101732.41;5037271;27;100804;-30
2022/09/04 08:10:49;;;;;;;20.08;10.52;;;;;;;23.57;61.33;101742.28;5037267;27;96565;-32
2022/09/04 08:13:42;;;;;;;18.40;9.77;;;;;;;23.70;60.98;101744.66;5054939;27;96911;-30
2022/09/04 08:16:16;;;;;;;17.42;10.07;;;;;;;23.60;60.36;101752.19;5054232;27;99276;-30
2022/09/04 08:19:01;;;;;;;21.08;11.20;;;;;;;23.53;61.32;101751.94;5054921;27;99638;-30
2022/09/04 08:21:34;;;;;;;21.08;10.10;;;;;;;23.64;60.50;101757.22;5055475;27;96493;-31
2022/09/04 08:24:09;;;;;;;21.98;11.02;;;;;;;23.65;60.61;101760.88;5055170;27;96805;-31
2022/09/04 08:26:49;;;;;;;22.23;12.07;;;;;;;23.79;60.44;101762.22;5055066;27;98024;-30
2022/09/04 08:29:49;;;;;;;21.23;11.43;;;;;;;23.86;60.05;101755.03;5036537;27;101175;-31
2022/09/04 08:32:33;;;;;;;21.98;10.85;;;;;;;24.03;59.21;101759.69;5028660;27;96956;-31
2022/09/04 08:35:22;;;;;;;26.13;12.95;;;;;;;24.24;59.37;101755.69;5055535;27;96680;-30
2022/09/04 08:38:13;;;;;;;24.52;12.95;;;;;;;24.25;59.81;101762.97;5035658;27;100867;-30
2022/09/04 08:40:57;;;;;;;21.13;11.98;;;;;;;24.30;58.82;101771.66;5035751;27;100932;-30
2022/09/04 08:43:57;;;;;;;23.50;12.60;;;;;;;24.41;58.80;101773.28;5055016;27;96563;-30
2022/09/04 08:47:00;;;;;;;26.48;13.00;;;;;;;24.43;59.51;101766.56;5036676;27;96807;-31
2022/09/04 08:49:54;;;;;;;26.20;13.05;;;;;;;24.32;59.41;101764.94;4952314;28;99279;-31
2022/09/04 08:52:34;;;;;;;21.35;12.27;;;;;;;24.35;59.21;101780.34;5054342;27;99071;-30
2022/09/04 08:55:30;;;;;;;25.10;13.70;;;;;;;24.39;59.19;101770.69;5054968;27;96645;-30
2022/09/04 08:58:09;;;;;;;26.02;13.65;;;;;;;24.49;58.63;101777.00;5054720;27;96571;-31
2022/09/04 09:01:02;;;;;;;22.75;12.73;;;;;;;24.50;59.48;101776.00;5054608;27;97733;-30
2022/09/04 09:03:51;;;;;;;29.70;14.23;;;;;;;24.65;58.88;101770.72;5055044;27;97514;-30
2022/09/04 09:06:23;;;;;;;27.15;13.68;;;;;;;24.73;58.69;101781.84;5036326;27;96606;-30
2022/09/04 09:09:26;;;;;;;31.48;14.48;;;;;;;24.76;58.82;101788.94;5036349;27;96724;-30
2022/09/04 09:12:25;;;;;;;25.73;12.60;;;;;;;24.93;58.54;101788.03;5053082;27;97419;-30
2022/09/04 09:14:53;;;;;;;26.73;13.82;;;;;;;24.95;57.69;101787.84;5054468;27;97364;-31
2022/09/04 09:17:39;;;;;;;25.00;13.18;;;;;;;24.92;58.50;101777.09;5036084;27;96872;-31
2022/09/04 09:20:27;;;;;;;29.90;14.25;;;;;;;24.87;58.54;101791.44;5036350;27;96772;-31
2022/09/04 09:23:15;;;;;;;26.05;12.95;;;;;;;25.06;58.10;101792.22;5035956;27;101141;-32
2022/09/04 09:25:51;;;;;;;27.55;12.57;;;;;;;25.16;58.14;101787.41;5054031;27;99266;-30
2022/09/04 09:28:16;;;;;;;30.48;14.25;;;;;;;25.28;57.83;101788.00;5036177;27;96674;-31
2022/09/04 09:31:20;;;;;;;26.63;13.47;;;;;;;25.42;57.67;101791.00;5054717;27;96955;-31
2022/09/04 09:34:13;;;;;;;23.70;11.15;;;;;;;25.62;57.02;101790.69;5053973;27;99301;-32
2022/09/04 09:37:09;;;;;;;23.45;11.43;;;;;;;25.77;56.56;101789.00;5054341;27;97697;-32
2022/09/04 09:40:12;;;;;;;25.23;11.57;;;;;;;25.91;56.19;101794.91;5053632;27;96648;-32
2022/09/04 09:43:08;;;;;;;25.48;12.50;;;;;;;25.82;55.88;101794.91;5054226;27;96914;-31
2022/09/04 09:45:59;;;;;;;27.13;13.23;;;;;;;25.71;56.41;101786.88;5053823;27;99275;-33
2022/09/04 09:48:49;;;;;;;29.98;12.63;;;;;;;25.71;56.46;101788.81;5054117;27;97684;-32
2022/09/04 09:51:24;;;;;;;22.10;10.70;;;;;;;25.77;56.42;101782.59;5038768;27;96634;-31
2022/09/04 09:54:24;;;;;;;24.05;10.48;;;;;;;25.99;55.66;101781.06;5039305;27;96824;-30
2022/09/04 09:57:20;;;;;;;20.85;10.57;;;;;;;26.33;54.70;101785.56;5030874;27;100756;-31
2022/09/04 10:00:12;;;;;;;20.88;10.65;;;;;;;26.41;54.58;101791.09;5057591;27;97303;-31
2022/09/04 10:03:06;;;;;;;17.63;9.75;;;;;;;26.51;54.39;101794.56;5039222;27;96666;-31
2022/09/04 10:06:09;;;;;;;22.38;9.45;;;;;;;26.63;54.05;101787.63;5057197;27;96881;-31
2022/09/04 10:08:59;;;;;;;22.83;8.57;;;;;;;26.77;53.07;101790.69;5056749;27;98003;-31
2022/09/04 10:11:55;;;;;;;22.35;10.70;;;;;;;26.86;53.03;101792.41;5056689;27;98912;-32
2022/09/04 10:14:42;;;;;;;22.98;10.55;;;;;;;26.86;52.91;101795.19;5057407;27;96676;-31
2022/09/04 10:17:26;;;;;;;23.70;10.88;;;;;;;27.00;52.65;101796.38;5057221;27;96889;-30
2022/09/04 10:20:03;;;;;;;20.77;10.13;;;;;;;27.17;52.56;101791.59;5057393;27;97814;-31
2022/09/04 10:22:50;;;;;;;25.30;10.35;;;;;;;27.22;52.19;101794.75;5038602;27;99512;-32
2022/09/04 10:25:43;;;;;;;18.80;9.02;;;;;;;27.34;52.20;101798.88;5057399;27;96509;-32
2022/09/04 10:28:08;;;;;;;24.13;9.80;;;;;;;27.52;51.69;101790.25;5057764;27;96660;-31
2022/09/04 10:31:12;;;;;;;17.27;8.63;;;;;;;27.65;51.38;101798.88;5056801;27;98056;-31
2022/09/04 10:33:47;;;;;;;17.85;7.70;;;;;;;27.90;51.04;101795.94;5056707;27;99408;-31
2022/09/04 10:36:36;;;;;;;14.23;6.90;;;;;;;28.00;50.39;101785.41;5038104;27;96614;-31
2022/09/04 10:42:33;;;;;;;11.10;4.78;;;;;;;27.85;49.73;101802.06;5056959;27;96557;-33
2022/09/04 10:45:15;;;;;;;10.20;4.50;;;;;;;28.04;49.62;101803.47;5038105;27;101347;-31
2022/09/04 10:47:57;;;;;;;9.93;4.68;;;;;;;28.11;49.15;101798.91;5038324;27;96763;-30
2022/09/04 10:50:45;;;;;;;11.80;5.72;;;;;;;28.14;47.51;101803.22;5056737;27;96639;-31
2022/09/04 10:53:13;;;;;;;12.95;5.43;;;;;;;28.04;49.08;101795.13;5008299;27;97531;-31
2022/09/04 10:55:52;;;;;;;11.60;5.70;;;;;;;28.09;49.38;101802.91;5056776;27;97312;-31
2022/09/04 10:58:43;;;;;;;9.82;4.53;;;;;;;27.92;47.82;101803.06;5038307;27;96670;-31
2022/09/04 11:01:18;;;;;;;9.68;4.40;;;;;;;28.08;49.24;101804.84;5037816;27;96800;-30
2022/09/04 11:04:16;;;;;;;11.45;4.70;;;;;;;28.03;48.13;101809.22;5055876;27;97995;-31
2022/09/04 11:06:51;;;;;;;9.15;4.93;;;;;;;28.08;48.55;101806.75;5037980;27;100736;-31
2022/09/04 11:09:31;;;;;;;10.80;5.50;;;;;;;28.03;48.66;101807.34;5038190;27;96758;-30
2022/09/04 11:12:08;;;;;;;11.68;4.82;;;;;;;28.12;48.49;101806.19;5037223;27;96842;-31
2022/09/04 11:15:04;;;;;;;13.02;4.88;;;;;;;28.19;47.86;101800.72;5037607;27;100944;-33
2022/09/04 11:17:51;;;;;;;12.10;5.18;;;;;;;28.38;47.67;101805.78;5055864;27;97316;-32
2022/09/04 11:20:43;;;;;;;11.20;4.80;;;;;;;28.53;47.41;101804.97;5038160;27;96518;-33
2022/09/04 11:23:40;;;;;;;8.93;4.05;;;;;;;28.62;47.40;101803.84;5038039;27;96922;-31
2022/09/04 11:26:38;;;;;;;6.45;3.30;;;;;;;28.77;45.60;101799.16;5055706;27;99366;-31
2022/09/04 11:29:21;;;;;;;6.53;3.38;;;;;;;28.78;45.75;101795.28;5056077;27;98441;-31
2022/09/04 11:32:18;;;;;;;8.20;3.53;;;;;;;28.58;46.50;101799.72;5055776;27;96675;-31
2022/09/04 11:35:01;;;;;;;7.40;3.72;;;;;;;28.69;46.37;101802.03;5055985;27;96690;-31
2022/09/04 11:38:16;;;;;;;10.50;3.78;;;;;;;28.83;45.54;101805.03;5037340;27;101595;-31
2022/09/04 11:41:19;;;;;;;5.95;2.80;;;;;;;28.79;45.33;101802.63;4953163;28;99537;-31
2022/09/04 11:43:53;;;;;;;4.28;2.40;;;;;;;28.72;46.24;101807.25;5055963;27;96550;-31
2022/09/04 11:46:46;;;;;;;5.75;2.40;;;;;;;28.62;45.56;101797.41;5037568;27;96706;-31
2022/09/04 11:49:17;;;;;;;5.65;1.95;;;;;;;28.53;46.34;101803.06;5037225;27;99139;-32
2022/09/04 11:52:07;;;;;;;3.70;1.80;;;;;;;28.33;44.86;101799.91;5056106;27;97839;-31
2022/09/04 11:54:58;;;;;;;4.45;1.88;;;;;;;28.37;45.47;101795.69;5037309;27;96634;-31
2022/09/04 11:57:57;;;;;;;3.30;1.85;;;;;;;28.51;45.22;101807.13;5055840;27;96581;-31
2022/09/04 12:00:22;;;;;;;3.92;2.08;;;;;;;28.43;46.41;101804.34;5055184;27;97883;-31
2022/09/04 12:02:59;;;;;;;5.97;2.75;;;;;;;28.47;44.07;101801.03;5054938;27;99195;-31
2022/09/04 12:05:49;;;;;;;3.28;1.67;;;;;;;28.74;45.03;101807.03;5055510;27;96589;-32
2022/09/04 12:08:37;;;;;;;5.47;2.30;;;;;;;28.99;44.91;101799.25;5055549;27;96691;-32
2022/09/04 12:11:13;;;;;;;4.65;2.35;;;;;;;28.97;45.00;101801.38;5036606;27;100832;-32
2022/09/04 12:13:57;;;;;;;4.78;2.80;;;;;;;28.92;44.56;101803.88;5035528;27;100753;-31
2022/09/04 12:16:56;;;;;;;4.22;2.40;;;;;;;28.75;45.16;101804.06;5036774;27;96639;-31
2022/09/04 12:20:08;;;;;;;4.13;2.38;;;;;;;28.65;45.69;101805.38;5055851;27;96553;-31
2022/09/04 12:23:02;;;;;;;5.07;2.47;;;;;;;28.29;44.37;101814.41;5045357;27;98036;-31
2022/09/04 12:25:52;;;;;;;4.43;2.28;;;;;;;28.36;44.82;101793.97;5036667;27;99017;-31
2022/09/04 12:29:01;;;;;;;5.88;2.67;;;;;;;28.52;45.06;101804.13;5036596;27;96630;-31
2022/09/04 12:31:50;;;;;;;3.38;1.90;;;;;;;28.38;42.58;101805.78;5010819;27;96903;-31
2022/09/04 12:34:57;;;;;;;6.18;2.20;;;;;;;28.53;43.48;101804.97;5036567;27;101122;-31
2022/09/04 12:37:50;;;;;;;4.18;2.47;;;;;;;28.47;41.07;101806.59;5055070;27;97929;-30
2022/09/04 12:40:24;;;;;;;7.28;2.78;;;;;;;28.31;42.67;101815.94;5054928;27;96728;-31
2022/09/04 12:42:58;;;;;;;5.72;2.65;;;;;;;28.24;44.48;101811.31;5055218;27;96795;-30
2022/09/04 12:45:42;;;;;;;6.75;3.00;;;;;;;28.14;42.96;101815.22;5054571;27;99406;-32